sensor_id;sensor_type;location;lat;lon;timestamp;P1;durP1;ratioP1;P2;durP2;ratioP2
60068;SDS011;45945;53.350;55.922;2023-07-13T00:00:18;4.22;;;1.75;;
60068;SDS011;45945;53.350;55.922;2023-07-13T00:01:19;4.38;;;1.90;;
60068;SDS011;45945;53.350;55.922;2023-07-13T00:02:20;5.65;;;1.63;;
60068;SDS011;45945;53.350;55.922;2023-07-13T00:03:21;6.75;;;1.80;;
60068;SDS011;45945;53.350;55.922;2023-07-13T00:04:22;3.88;;;1.73;;
60068;SDS011;45945;53.350;55.922;2023-07-13T00:05:23;4.60;;;1.67;;
60068;SDS011;45945;53.350;55.922;2023-07-13T00:06:24;4.57;;;1.80;;
60068;SDS011;45945;53.350;55.922;2023-07-13T00:07:25;4.88;;;1.80;;
60068;SDS011;45945;53.350;55.922;2023-07-13T00:08:26;6.45;;;2.00;;
60068;SDS011;45945;53.350;55.922;2023-07-13T00:09:27;3.88;;;1.52;;
60068;SDS011;45945;53.350;55.922;2023-07-13T00:10:28;5.47;;;1.80;;
60068;SDS011;45945;53.350;55.922;2023-07-13T00:11:28;4.78;;;2.05;;
60068;SDS011;45945;53.350;55.922;2023-07-13T00:12:32;6.35;;;1.75;;
60068;SDS011;45945;53.350;55.922;2023-07-13T00:13:32;3.53;;;1.70;;
60068;SDS011;45945;53.350;55.922;2023-07-13T00:14:34;4.30;;;1.77;;
60068;SDS011;45945;53.350;55.922;2023-07-13T00:15:35;5.03;;;1.88;;
60068;SDS011;45945;53.350;55.922;2023-07-13T00:16:37;4.15;;;1.60;;
60068;SDS011;45945;53.350;55.922;2023-07-13T00:17:38;5.30;;;1.90;;
60068;SDS011;45945;53.350;55.922;2023-07-13T00:18:39;5.18;;;1.80;;
60068;SDS011;45945;53.350;55.922;2023-07-13T00:19:40;4.55;;;1.92;;
60068;SDS011;45945;53.350;55.922;2023-07-13T00:20:41;4.20;;;1.88;;
60068;SDS011;45945;53.350;55.922;2023-07-13T00:21:43;5.28;;;1.70;;
60068;SDS011;45945;53.350;55.922;2023-07-13T00:22:44;4.65;;;1.63;;
60068;SDS011;45945;53.350;55.922;2023-07-13T00:23:45;6.70;;;2.00;;
60068;SDS011;45945;53.350;55.922;2023-07-13T00:24:46;4.35;;;1.80;;
60068;SDS011;45945;53.350;55.922;2023-07-13T00:25:47;4.80;;;1.55;;
60068;SDS011;45945;53.350;55.922;2023-07-13T00:26:48;5.82;;;1.83;;
60068;SDS011;45945;53.350;55.922;2023-07-13T00:27:49;3.92;;;1.80;;
60068;SDS011;45945;53.350;55.922;2023-07-13T00:28:50;5.97;;;1.67;;
60068;SDS011;45945;53.350;55.922;2023-07-13T00:29:52;5.80;;;1.88;;
60068;SDS011;45945;53.350;55.922;2023-07-13T00:30:53;4.78;;;1.65;;
60068;SDS011;45945;53.350;55.922;2023-07-13T00:31:54;5.68;;;1.80;;
60068;SDS011;45945;53.350;55.922;2023-07-13T00:32:55;5.00;;;1.80;;
60068;SDS011;45945;53.350;55.922;2023-07-13T00:33:56;4.35;;;1.60;;
60068;SDS011;45945;53.350;55.922;2023-07-13T00:34:57;3.28;;;1.70;;
60068;SDS011;45945;53.350;55.922;2023-07-13T00:36:00;3.55;;;1.75;;
60068;SDS011;45945;53.350;55.922;2023-07-13T00:37:01;5.55;;;1.75;;
60068;SDS011;45945;53.350;55.922;2023-07-13T00:38:02;4.05;;;1.70;;
60068;SDS011;45945;53.350;55.922;2023-07-13T00:39:03;5.53;;;1.67;;
60068;SDS011;45945;53.350;55.922;2023-07-13T00:40:06;5.53;;;2.00;;
60068;SDS011;45945;53.350;55.922;2023-07-13T00:41:07;4.93;;;1.90;;
60068;SDS011;45945;53.350;55.922;2023-07-13T00:42:08;4.90;;;1.90;;
60068;SDS011;45945;53.350;55.922;2023-07-13T00:43:11;5.90;;;2.30;;
60068;SDS011;45945;53.350;55.922;2023-07-13T00:44:17;4.88;;;2.10;;
60068;SDS011;45945;53.350;55.922;2023-07-13T00:46:32;7.30;;;2.17;;
60068;SDS011;45945;53.350;55.922;2023-07-13T00:47:33;8.02;;;2.33;;
60068;SDS011;45945;53.350;55.922;2023-07-13T00:48:34;5.35;;;2.10;;
60068;SDS011;45945;53.350;55.922;2023-07-13T00:49:37;4.15;;;1.85;;
60068;SDS011;45945;53.350;55.922;2023-07-13T00:50:38;4.93;;;1.83;;
60068;SDS011;45945;53.350;55.922;2023-07-13T00:51:44;7.68;;;2.20;;
60068;SDS011;45945;53.350;55.922;2023-07-13T00:52:46;4.18;;;1.90;;
60068;SDS011;45945;53.350;55.922;2023-07-13T00:53:48;4.70;;;1.88;;
60068;SDS011;45945;53.350;55.922;2023-07-13T00:54:49;4.22;;;1.80;;
60068;SDS011;45945;53.350;55.922;2023-07-13T00:55:50;4.22;;;2.00;;
60068;SDS011;45945;53.350;55.922;2023-07-13T00:56:52;5.30;;;1.65;;
60068;SDS011;45945;53.350;55.922;2023-07-13T00:57:54;6.30;;;1.80;;
60068;SDS011;45945;53.350;55.922;2023-07-13T00:58:55;3.95;;;1.60;;
60068;SDS011;45945;53.350;55.922;2023-07-13T00:59:58;3.85;;;1.52;;
60068;SDS011;45945;53.350;55.922;2023-07-13T01:01:00;4.57;;;2.05;;
60068;SDS011;45945;53.350;55.922;2023-07-13T01:02:01;3.83;;;1.40;;
60068;SDS011;45945;53.350;55.922;2023-07-13T01:03:03;5.03;;;1.90;;
60068;SDS011;45945;53.350;55.922;2023-07-13T01:04:05;5.28;;;2.20;;
60068;SDS011;45945;53.350;55.922;2023-07-13T01:05:11;4.93;;;1.85;;
60068;SDS011;45945;53.350;55.922;2023-07-13T01:06:13;4.95;;;1.60;;
60068;SDS011;45945;53.350;55.922;2023-07-13T01:07:14;5.82;;;2.05;;
60068;SDS011;45945;53.350;55.922;2023-07-13T01:08:16;4.18;;;1.55;;
60068;SDS011;45945;53.350;55.922;2023-07-13T01:09:16;6.95;;;2.20;;
60068;SDS011;45945;53.350;55.922;2023-07-13T01:10:21;5.55;;;1.90;;
60068;SDS011;45945;53.350;55.922;2023-07-13T01:11:23;5.10;;;1.65;;
60068;SDS011;45945;53.350;55.922;2023-07-13T01:12:24;4.25;;;1.70;;
60068;SDS011;45945;53.350;55.922;2023-07-13T01:13:25;3.97;;;1.70;;
60068;SDS011;45945;53.350;55.922;2023-07-13T01:14:26;5.13;;;1.80;;
60068;SDS011;45945;53.350;55.922;2023-07-13T01:15:38;3.65;;;1.73;;
60068;SDS011;45945;53.350;55.922;2023-07-13T01:16:40;5.13;;;1.60;;
60068;SDS011;45945;53.350;55.922;2023-07-13T01:17:42;3.58;;;1.60;;
60068;SDS011;45945;53.350;55.922;2023-07-13T01:18:44;4.22;;;1.80;;
60068;SDS011;45945;53.350;55.922;2023-07-13T01:19:45;5.65;;;2.25;;
60068;SDS011;45945;53.350;55.922;2023-07-13T01:21:56;3.78;;;1.80;;
60068;SDS011;45945;53.350;55.922;2023-07-13T01:22:57;5.95;;;1.70;;
60068;SDS011;45945;53.350;55.922;2023-07-13T01:23:57;5.75;;;1.83;;
60068;SDS011;45945;53.350;55.922;2023-07-13T01:24:58;6.38;;;1.90;;
60068;SDS011;45945;53.350;55.922;2023-07-13T01:25:59;5.65;;;2.03;;
60068;SDS011;45945;53.350;55.922;2023-07-13T01:27:01;6.95;;;1.85;;
60068;SDS011;45945;53.350;55.922;2023-07-13T01:28:05;6.32;;;1.80;;
60068;SDS011;45945;53.350;55.922;2023-07-13T01:29:07;5.50;;;2.13;;
60068;SDS011;45945;53.350;55.922;2023-07-13T01:30:08;6.43;;;1.90;;
60068;SDS011;45945;53.350;55.922;2023-07-13T01:31:10;7.30;;;1.92;;
60068;SDS011;45945;53.350;55.922;2023-07-13T01:32:12;8.02;;;2.25;;
60068;SDS011;45945;53.350;55.922;2023-07-13T01:33:17;6.05;;;1.98;;
60068;SDS011;45945;53.350;55.922;2023-07-13T01:34:18;4.03;;;1.80;;
60068;SDS011;45945;53.350;55.922;2023-07-13T01:35:19;6.70;;;1.80;;
60068;SDS011;45945;53.350;55.922;2023-07-13T01:36:20;5.15;;;1.90;;
60068;SDS011;45945;53.350;55.922;2023-07-13T01:37:22;4.97;;;1.95;;
60068;SDS011;45945;53.350;55.922;2023-07-13T01:38:25;5.68;;;1.90;;
60068;SDS011;45945;53.350;55.922;2023-07-13T01:39:26;5.40;;;1.90;;
60068;SDS011;45945;53.350;55.922;2023-07-13T01:40:27;4.85;;;1.83;;
60068;SDS011;45945;53.350;55.922;2023-07-13T01:41:28;4.57;;;1.75;;
60068;SDS011;45945;53.350;55.922;2023-07-13T01:42:29;8.65;;;2.03;;
60068;SDS011;45945;53.350;55.922;2023-07-13T01:43:30;5.53;;;2.00;;
60068;SDS011;45945;53.350;55.922;2023-07-13T01:44:31;5.35;;;2.00;;
60068;SDS011;45945;53.350;55.922;2023-07-13T01:45:32;6.32;;;1.90;;
60068;SDS011;45945;53.350;55.922;2023-07-13T01:46:33;4.75;;;2.00;;
60068;SDS011;45945;53.350;55.922;2023-07-13T01:47:34;5.30;;;2.17;;
60068;SDS011;45945;53.350;55.922;2023-07-13T01:48:35;6.45;;;2.20;;
60068;SDS011;45945;53.350;55.922;2023-07-13T01:49:36;5.05;;;1.83;;
60068;SDS011;45945;53.350;55.922;2023-07-13T01:50:38;6.65;;;2.05;;
60068;SDS011;45945;53.350;55.922;2023-07-13T01:51:39;6.47;;;2.75;;
60068;SDS011;45945;53.350;55.922;2023-07-13T01:52:39;4.35;;;1.90;;
60068;SDS011;45945;53.350;55.922;2023-07-13T01:53:40;7.95;;;3.20;;
60068;SDS011;45945;53.350;55.922;2023-07-13T01:54:41;5.40;;;2.40;;
60068;SDS011;45945;53.350;55.922;2023-07-13T01:55:43;7.95;;;2.83;;
60068;SDS011;45945;53.350;55.922;2023-07-13T01:56:44;7.22;;;2.80;;
60068;SDS011;45945;53.350;55.922;2023-07-13T01:57:45;5.90;;;2.53;;
60068;SDS011;45945;53.350;55.922;2023-07-13T01:58:47;5.70;;;2.28;;
60068;SDS011;45945;53.350;55.922;2023-07-13T01:59:48;4.97;;;2.10;;
60068;SDS011;45945;53.350;55.922;2023-07-13T02:00:49;5.97;;;2.33;;
60068;SDS011;45945;53.350;55.922;2023-07-13T02:01:50;6.32;;;2.28;;
60068;SDS011;45945;53.350;55.922;2023-07-13T02:02:51;5.55;;;2.10;;
60068;SDS011;45945;53.350;55.922;2023-07-13T02:03:52;5.50;;;2.20;;
60068;SDS011;45945;53.350;55.922;2023-07-13T02:04:54;5.03;;;2.30;;
60068;SDS011;45945;53.350;55.922;2023-07-13T02:05:57;5.28;;;2.25;;
60068;SDS011;45945;53.350;55.922;2023-07-13T02:06:57;4.40;;;1.90;;
60068;SDS011;45945;53.350;55.922;2023-07-13T02:07:58;4.78;;;2.22;;
60068;SDS011;45945;53.350;55.922;2023-07-13T02:08:59;8.20;;;2.30;;
60068;SDS011;45945;53.350;55.922;2023-07-13T02:10:01;5.72;;;2.38;;
60068;SDS011;45945;53.350;55.922;2023-07-13T02:11:02;6.47;;;2.17;;
60068;SDS011;45945;53.350;55.922;2023-07-13T02:12:04;7.55;;;2.30;;
60068;SDS011;45945;53.350;55.922;2023-07-13T02:13:07;5.47;;;2.25;;
60068;SDS011;45945;53.350;55.922;2023-07-13T02:14:09;5.60;;;2.35;;
60068;SDS011;45945;53.350;55.922;2023-07-13T02:15:10;6.85;;;2.28;;
60068;SDS011;45945;53.350;55.922;2023-07-13T02:16:11;7.38;;;2.28;;
60068;SDS011;45945;53.350;55.922;2023-07-13T02:17:12;10.18;;;2.50;;
60068;SDS011;45945;53.350;55.922;2023-07-13T02:18:13;5.68;;;2.50;;
60068;SDS011;45945;53.350;55.922;2023-07-13T02:19:17;7.32;;;2.40;;
60068;SDS011;45945;53.350;55.922;2023-07-13T02:20:19;6.63;;;2.40;;
60068;SDS011;45945;53.350;55.922;2023-07-13T02:21:20;6.97;;;2.40;;
60068;SDS011;45945;53.350;55.922;2023-07-13T02:22:21;6.32;;;2.13;;
60068;SDS011;45945;53.350;55.922;2023-07-13T02:23:22;5.40;;;1.80;;
60068;SDS011;45945;53.350;55.922;2023-07-13T02:24:24;7.25;;;1.80;;
60068;SDS011;45945;53.350;55.922;2023-07-13T02:25:25;7.38;;;1.90;;
60068;SDS011;45945;53.350;55.922;2023-07-13T02:26:27;4.35;;;1.92;;
60068;SDS011;45945;53.350;55.922;2023-07-13T02:27:28;7.20;;;1.90;;
60068;SDS011;45945;53.350;55.922;2023-07-13T02:28:29;4.07;;;1.50;;
60068;SDS011;45945;53.350;55.922;2023-07-13T02:29:30;5.25;;;1.73;;
60068;SDS011;45945;53.350;55.922;2023-07-13T02:30:31;4.13;;;1.60;;
60068;SDS011;45945;53.350;55.922;2023-07-13T02:31:32;5.43;;;2.00;;
60068;SDS011;45945;53.350;55.922;2023-07-13T02:32:33;4.45;;;1.70;;
60068;SDS011;45945;53.350;55.922;2023-07-13T02:33:35;4.95;;;1.98;;
60068;SDS011;45945;53.350;55.922;2023-07-13T02:34:36;5.80;;;2.00;;
60068;SDS011;45945;53.350;55.922;2023-07-13T02:35:38;4.93;;;1.60;;
60068;SDS011;45945;53.350;55.922;2023-07-13T02:36:39;4.63;;;1.70;;
60068;SDS011;45945;53.350;55.922;2023-07-13T02:37:41;5.55;;;2.00;;
60068;SDS011;45945;53.350;55.922;2023-07-13T02:38:42;7.28;;;2.08;;
60068;SDS011;45945;53.350;55.922;2023-07-13T02:39:43;6.38;;;1.88;;
60068;SDS011;45945;53.350;55.922;2023-07-13T02:40:44;5.47;;;1.75;;
60068;SDS011;45945;53.350;55.922;2023-07-13T02:41:46;5.63;;;1.85;;
60068;SDS011;45945;53.350;55.922;2023-07-13T02:42:48;6.47;;;1.80;;
60068;SDS011;45945;53.350;55.922;2023-07-13T02:43:49;6.68;;;1.77;;
60068;SDS011;45945;53.350;55.922;2023-07-13T02:44:50;4.47;;;1.75;;
60068;SDS011;45945;53.350;55.922;2023-07-13T02:45:52;6.40;;;3.15;;
60068;SDS011;45945;53.350;55.922;2023-07-13T02:46:53;5.22;;;1.58;;
60068;SDS011;45945;53.350;55.922;2023-07-13T02:47:53;4.95;;;1.63;;
60068;SDS011;45945;53.350;55.922;2023-07-13T02:48:54;5.00;;;1.92;;
60068;SDS011;45945;53.350;55.922;2023-07-13T02:49:55;5.22;;;1.90;;
60068;SDS011;45945;53.350;55.922;2023-07-13T02:50:56;4.47;;;1.75;;
60068;SDS011;45945;53.350;55.922;2023-07-13T02:51:57;5.80;;;1.92;;
60068;SDS011;45945;53.350;55.922;2023-07-13T02:52:58;8.02;;;2.55;;
60068;SDS011;45945;53.350;55.922;2023-07-13T02:54:03;7.22;;;2.15;;
60068;SDS011;45945;53.350;55.922;2023-07-13T02:55:04;7.65;;;1.73;;
60068;SDS011;45945;53.350;55.922;2023-07-13T02:56:05;5.80;;;1.70;;
60068;SDS011;45945;53.350;55.922;2023-07-13T02:57:09;6.18;;;1.90;;
60068;SDS011;45945;53.350;55.922;2023-07-13T02:58:09;5.20;;;1.70;;
60068;SDS011;45945;53.350;55.922;2023-07-13T02:59:11;4.80;;;1.95;;
60068;SDS011;45945;53.350;55.922;2023-07-13T03:00:12;9.18;;;1.90;;
60068;SDS011;45945;53.350;55.922;2023-07-13T03:01:13;4.25;;;1.50;;
60068;SDS011;45945;53.350;55.922;2023-07-13T03:02:19;5.03;;;1.90;;
60068;SDS011;45945;53.350;55.922;2023-07-13T03:03:21;6.18;;;2.28;;
60068;SDS011;45945;53.350;55.922;2023-07-13T03:04:22;7.15;;;1.90;;
60068;SDS011;45945;53.350;55.922;2023-07-13T03:05:23;5.82;;;1.70;;
60068;SDS011;45945;53.350;55.922;2023-07-13T03:06:24;3.72;;;1.50;;
60068;SDS011;45945;53.350;55.922;2023-07-13T03:07:28;4.63;;;1.70;;
60068;SDS011;45945;53.350;55.922;2023-07-13T03:08:29;5.28;;;1.70;;
60068;SDS011;45945;53.350;55.922;2023-07-13T03:09:30;5.55;;;1.80;;
60068;SDS011;45945;53.350;55.922;2023-07-13T03:10:33;6.88;;;1.80;;
60068;SDS011;45945;53.350;55.922;2023-07-13T03:11:35;4.05;;;1.63;;
60068;SDS011;45945;53.350;55.922;2023-07-13T03:12:46;7.63;;;2.10;;
60068;SDS011;45945;53.350;55.922;2023-07-13T03:13:56;5.07;;;1.42;;
60068;SDS011;45945;53.350;55.922;2023-07-13T03:14:58;4.43;;;1.70;;
60068;SDS011;45945;53.350;55.922;2023-07-13T03:15:59;5.55;;;1.70;;
60068;SDS011;45945;53.350;55.922;2023-07-13T03:17:00;5.13;;;1.50;;
60068;SDS011;45945;53.350;55.922;2023-07-13T03:18:05;6.00;;;1.60;;
60068;SDS011;45945;53.350;55.922;2023-07-13T03:19:07;5.07;;;1.50;;
60068;SDS011;45945;53.350;55.922;2023-07-13T03:20:08;5.15;;;1.50;;
60068;SDS011;45945;53.350;55.922;2023-07-13T03:21:10;5.43;;;1.52;;
60068;SDS011;45945;53.350;55.922;2023-07-13T03:22:11;6.40;;;1.80;;
60068;SDS011;45945;53.350;55.922;2023-07-13T03:23:14;4.72;;;1.40;;
60068;SDS011;45945;53.350;55.922;2023-07-13T03:24:16;4.10;;;1.10;;
60068;SDS011;45945;53.350;55.922;2023-07-13T03:25:17;3.83;;;1.33;;
60068;SDS011;45945;53.350;55.922;2023-07-13T03:26:20;3.53;;;1.27;;
60068;SDS011;45945;53.350;55.922;2023-07-13T03:27:24;3.22;;;1.08;;
60068;SDS011;45945;53.350;55.922;2023-07-13T03:28:25;3.05;;;1.30;;
60068;SDS011;45945;53.350;55.922;2023-07-13T03:29:26;2.70;;;1.10;;
60068;SDS011;45945;53.350;55.922;2023-07-13T03:30:27;4.13;;;1.15;;
60068;SDS011;45945;53.350;55.922;2023-07-13T03:31:30;3.55;;;1.20;;
60068;SDS011;45945;53.350;55.922;2023-07-13T03:32:32;3.40;;;1.00;;
60068;SDS011;45945;53.350;55.922;2023-07-13T03:33:33;2.72;;;1.00;;
60068;SDS011;45945;53.350;55.922;2023-07-13T03:34:34;3.22;;;0.90;;
60068;SDS011;45945;53.350;55.922;2023-07-13T03:35:35;6.13;;;1.27;;
60068;SDS011;45945;53.350;55.922;2023-07-13T03:36:41;3.72;;;1.10;;
60068;SDS011;45945;53.350;55.922;2023-07-13T03:37:44;3.72;;;1.00;;
60068;SDS011;45945;53.350;55.922;2023-07-13T03:38:55;6.63;;;1.27;;
60068;SDS011;45945;53.350;55.922;2023-07-13T03:40:00;3.67;;;1.02;;
60068;SDS011;45945;53.350;55.922;2023-07-13T03:41:04;3.50;;;1.08;;
60068;SDS011;45945;53.350;55.922;2023-07-13T03:42:06;3.22;;;1.00;;
60068;SDS011;45945;53.350;55.922;2023-07-13T03:43:07;3.80;;;1.15;;
60068;SDS011;45945;53.350;55.922;2023-07-13T03:44:08;4.03;;;0.85;;
60068;SDS011;45945;53.350;55.922;2023-07-13T03:45:09;3.47;;;1.00;;
60068;SDS011;45945;53.350;55.922;2023-07-13T03:46:10;5.07;;;1.15;;
60068;SDS011;45945;53.350;55.922;2023-07-13T03:47:11;4.38;;;1.00;;
60068;SDS011;45945;53.350;55.922;2023-07-13T03:48:13;5.30;;;1.10;;
60068;SDS011;45945;53.350;55.922;2023-07-13T03:49:14;2.70;;;1.17;;
60068;SDS011;45945;53.350;55.922;2023-07-13T03:50:15;4.45;;;1.05;;
60068;SDS011;45945;53.350;55.922;2023-07-13T03:51:16;2.28;;;0.90;;
60068;SDS011;45945;53.350;55.922;2023-07-13T03:52:17;2.22;;;0.93;;
60068;SDS011;45945;53.350;55.922;2023-07-13T03:53:18;2.75;;;1.00;;
60068;SDS011;45945;53.350;55.922;2023-07-13T03:54:20;2.25;;;0.93;;
60068;SDS011;45945;53.350;55.922;2023-07-13T03:55:21;2.15;;;0.95;;
60068;SDS011;45945;53.350;55.922;2023-07-13T03:56:22;4.10;;;1.05;;
60068;SDS011;45945;53.350;55.922;2023-07-13T03:57:23;4.35;;;1.10;;
60068;SDS011;45945;53.350;55.922;2023-07-13T03:58:25;3.75;;;1.20;;
60068;SDS011;45945;53.350;55.922;2023-07-13T03:59:28;3.28;;;1.08;;
60068;SDS011;45945;53.350;55.922;2023-07-13T04:00:29;3.47;;;1.00;;
60068;SDS011;45945;53.350;55.922;2023-07-13T04:01:31;4.78;;;1.17;;
60068;SDS011;45945;53.350;55.922;2023-07-13T04:02:32;3.50;;;0.95;;
60068;SDS011;45945;53.350;55.922;2023-07-13T04:03:34;1.88;;;0.70;;
60068;SDS011;45945;53.350;55.922;2023-07-13T04:04:35;5.97;;;1.08;;
60068;SDS011;45945;53.350;55.922;2023-07-13T04:05:36;5.90;;;1.10;;
60068;SDS011;45945;53.350;55.922;2023-07-13T04:06:38;4.95;;;1.20;;
60068;SDS011;45945;53.350;55.922;2023-07-13T04:07:39;5.88;;;1.02;;
60068;SDS011;45945;53.350;55.922;2023-07-13T04:08:41;3.70;;;0.93;;
60068;SDS011;45945;53.350;55.922;2023-07-13T04:09:42;3.20;;;1.00;;
60068;SDS011;45945;53.350;55.922;2023-07-13T04:10:44;4.32;;;0.80;;
60068;SDS011;45945;53.350;55.922;2023-07-13T04:11:46;3.53;;;1.45;;
60068;SDS011;45945;53.350;55.922;2023-07-13T04:12:47;6.90;;;1.15;;
60068;SDS011;45945;53.350;55.922;2023-07-13T04:13:48;5.32;;;1.23;;
60068;SDS011;45945;53.350;55.922;2023-07-13T04:14:49;4.63;;;1.00;;
60068;SDS011;45945;53.350;55.922;2023-07-13T04:15:50;4.30;;;1.17;;
60068;SDS011;45945;53.350;55.922;2023-07-13T04:16:51;4.22;;;1.00;;
60068;SDS011;45945;53.350;55.922;2023-07-13T04:17:52;4.70;;;1.20;;
60068;SDS011;45945;53.350;55.922;2023-07-13T04:18:53;2.97;;;0.93;;
60068;SDS011;45945;53.350;55.922;2023-07-13T04:19:55;4.15;;;1.05;;
60068;SDS011;45945;53.350;55.922;2023-07-13T04:20:56;4.57;;;1.05;;
60068;SDS011;45945;53.350;55.922;2023-07-13T04:21:57;2.53;;;0.90;;
60068;SDS011;45945;53.350;55.922;2023-07-13T04:22:58;2.78;;;0.90;;
60068;SDS011;45945;53.350;55.922;2023-07-13T04:23:59;3.53;;;1.20;;
60068;SDS011;45945;53.350;55.922;2023-07-13T04:25:00;4.65;;;1.15;;
60068;SDS011;45945;53.350;55.922;2023-07-13T04:26:01;4.45;;;1.00;;
60068;SDS011;45945;53.350;55.922;2023-07-13T04:27:02;6.53;;;1.23;;
60068;SDS011;45945;53.350;55.922;2023-07-13T04:28:04;3.20;;;1.17;;
60068;SDS011;45945;53.350;55.922;2023-07-13T04:29:05;3.88;;;0.93;;
60068;SDS011;45945;53.350;55.922;2023-07-13T04:30:07;2.95;;;1.10;;
60068;SDS011;45945;53.350;55.922;2023-07-13T04:31:08;3.58;;;1.15;;
60068;SDS011;45945;53.350;55.922;2023-07-13T04:32:08;3.63;;;0.98;;
60068;SDS011;45945;53.350;55.922;2023-07-13T04:33:10;2.53;;;0.93;;
60068;SDS011;45945;53.350;55.922;2023-07-13T04:34:11;3.22;;;0.95;;
60068;SDS011;45945;53.350;55.922;2023-07-13T04:35:12;2.50;;;0.75;;
60068;SDS011;45945;53.350;55.922;2023-07-13T04:36:17;4.00;;;0.90;;
60068;SDS011;45945;53.350;55.922;2023-07-13T04:37:18;4.63;;;0.90;;
60068;SDS011;45945;53.350;55.922;2023-07-13T04:38:19;3.35;;;1.00;;
60068;SDS011;45945;53.350;55.922;2023-07-13T04:39:20;1.67;;;0.60;;
60068;SDS011;45945;53.350;55.922;2023-07-13T04:40:21;3.75;;;0.80;;
60068;SDS011;45945;53.350;55.922;2023-07-13T04:41:22;2.75;;;1.00;;
60068;SDS011;45945;53.350;55.922;2023-07-13T04:42:23;4.00;;;1.00;;
60068;SDS011;45945;53.350;55.922;2023-07-13T04:43:24;3.05;;;1.08;;
60068;SDS011;45945;53.350;55.922;2023-07-13T04:44:25;1.92;;;0.75;;
60068;SDS011;45945;53.350;55.922;2023-07-13T04:45:26;5.22;;;1.20;;
60068;SDS011;45945;53.350;55.922;2023-07-13T04:46:27;3.95;;;1.00;;
60068;SDS011;45945;53.350;55.922;2023-07-13T04:47:30;3.03;;;0.93;;
60068;SDS011;45945;53.350;55.922;2023-07-13T04:48:31;4.97;;;1.25;;
60068;SDS011;45945;53.350;55.922;2023-07-13T04:49:32;2.92;;;1.10;;
60068;SDS011;45945;53.350;55.922;2023-07-13T04:50:37;4.07;;;1.33;;
60068;SDS011;45945;53.350;55.922;2023-07-13T04:51:38;5.07;;;1.00;;
60068;SDS011;45945;53.350;55.922;2023-07-13T04:52:39;4.85;;;1.13;;
60068;SDS011;45945;53.350;55.922;2023-07-13T04:53:40;3.65;;;1.10;;
60068;SDS011;45945;53.350;55.922;2023-07-13T04:54:41;3.75;;;0.90;;
60068;SDS011;45945;53.350;55.922;2023-07-13T04:55:42;4.80;;;0.98;;
60068;SDS011;45945;53.350;55.922;2023-07-13T04:56:43;3.55;;;1.00;;
60068;SDS011;45945;53.350;55.922;2023-07-13T04:57:45;4.75;;;1.38;;
60068;SDS011;45945;53.350;55.922;2023-07-13T04:58:45;4.20;;;1.00;;
60068;SDS011;45945;53.350;55.922;2023-07-13T04:59:46;4.55;;;1.10;;
60068;SDS011;45945;53.350;55.922;2023-07-13T05:00:47;2.85;;;1.13;;
60068;SDS011;45945;53.350;55.922;2023-07-13T05:01:48;3.28;;;1.10;;
60068;SDS011;45945;53.350;55.922;2023-07-13T05:02:49;2.55;;;0.90;;
60068;SDS011;45945;53.350;55.922;2023-07-13T05:03:53;3.83;;;1.10;;
60068;SDS011;45945;53.350;55.922;2023-07-13T05:04:55;3.10;;;0.95;;
60068;SDS011;45945;53.350;55.922;2023-07-13T05:06:01;4.03;;;1.00;;
60068;SDS011;45945;53.350;55.922;2023-07-13T05:07:02;1.75;;;0.80;;
60068;SDS011;45945;53.350;55.922;2023-07-13T05:08:03;3.13;;;1.10;;
60068;SDS011;45945;53.350;55.922;2023-07-13T05:09:04;2.97;;;0.85;;
60068;SDS011;45945;53.350;55.922;2023-07-13T05:10:05;4.72;;;1.00;;
60068;SDS011;45945;53.350;55.922;2023-07-13T05:11:08;3.00;;;1.13;;
60068;SDS011;45945;53.350;55.922;2023-07-13T05:12:08;4.30;;;1.10;;
60068;SDS011;45945;53.350;55.922;2023-07-13T05:13:10;3.85;;;1.00;;
60068;SDS011;45945;53.350;55.922;2023-07-13T05:14:11;3.13;;;0.90;;
60068;SDS011;45945;53.350;55.922;2023-07-13T05:15:12;4.30;;;1.40;;
60068;SDS011;45945;53.350;55.922;2023-07-13T05:16:13;6.30;;;1.42;;
60068;SDS011;45945;53.350;55.922;2023-07-13T05:17:14;3.55;;;1.10;;
60068;SDS011;45945;53.350;55.922;2023-07-13T05:18:15;2.83;;;1.10;;
60068;SDS011;45945;53.350;55.922;2023-07-13T05:19:16;7.35;;;1.23;;
60068;SDS011;45945;53.350;55.922;2023-07-13T05:20:17;3.85;;;1.00;;
60068;SDS011;45945;53.350;55.922;2023-07-13T05:21:19;3.78;;;0.90;;
60068;SDS011;45945;53.350;55.922;2023-07-13T05:22:21;5.20;;;1.13;;
60068;SDS011;45945;53.350;55.922;2023-07-13T05:23:22;6.40;;;1.25;;
60068;SDS011;45945;53.350;55.922;2023-07-13T05:24:22;2.25;;;1.02;;
60068;SDS011;45945;53.350;55.922;2023-07-13T05:25:24;3.42;;;1.02;;
60068;SDS011;45945;53.350;55.922;2023-07-13T05:26:24;3.63;;;1.17;;
60068;SDS011;45945;53.350;55.922;2023-07-13T05:27:25;4.63;;;1.27;;
60068;SDS011;45945;53.350;55.922;2023-07-13T05:28:27;4.13;;;1.10;;
60068;SDS011;45945;53.350;55.922;2023-07-13T05:29:28;3.00;;;0.88;;
60068;SDS011;45945;53.350;55.922;2023-07-13T05:30:29;3.75;;;1.02;;
60068;SDS011;45945;53.350;55.922;2023-07-13T05:31:30;4.70;;;1.10;;
60068;SDS011;45945;53.350;55.922;2023-07-13T05:32:31;4.10;;;1.05;;
60068;SDS011;45945;53.350;55.922;2023-07-13T05:33:31;3.65;;;1.17;;
60068;SDS011;45945;53.350;55.922;2023-07-13T05:34:32;5.15;;;1.08;;
60068;SDS011;45945;53.350;55.922;2023-07-13T05:35:33;3.25;;;0.90;;
60068;SDS011;45945;53.350;55.922;2023-07-13T05:36:34;3.72;;;1.20;;
60068;SDS011;45945;53.350;55.922;2023-07-13T05:37:36;3.88;;;1.20;;
60068;SDS011;45945;53.350;55.922;2023-07-13T05:38:37;3.65;;;1.27;;
60068;SDS011;45945;53.350;55.922;2023-07-13T05:39:38;4.10;;;1.15;;
60068;SDS011;45945;53.350;55.922;2023-07-13T05:40:42;5.57;;;1.25;;
60068;SDS011;45945;53.350;55.922;2023-07-13T05:41:43;4.13;;;1.10;;
60068;SDS011;45945;53.350;55.922;2023-07-13T05:42:44;6.70;;;1.20;;
60068;SDS011;45945;53.350;55.922;2023-07-13T05:43:45;3.33;;;1.15;;
60068;SDS011;45945;53.350;55.922;2023-07-13T05:44:46;4.47;;;1.10;;
60068;SDS011;45945;53.350;55.922;2023-07-13T05:45:47;6.35;;;1.20;;
60068;SDS011;45945;53.350;55.922;2023-07-13T05:46:48;4.82;;;1.10;;
60068;SDS011;45945;53.350;55.922;2023-07-13T05:47:52;5.63;;;1.50;;
60068;SDS011;45945;53.350;55.922;2023-07-13T05:48:53;6.40;;;1.30;;
60068;SDS011;45945;53.350;55.922;2023-07-13T05:49:54;3.97;;;1.20;;
60068;SDS011;45945;53.350;55.922;2023-07-13T05:50:54;4.45;;;1.27;;
60068;SDS011;45945;53.350;55.922;2023-07-13T05:51:56;3.42;;;1.05;;
60068;SDS011;45945;53.350;55.922;2023-07-13T05:52:57;2.97;;;1.10;;
60068;SDS011;45945;53.350;55.922;2023-07-13T05:53:58;3.70;;;1.10;;
60068;SDS011;45945;53.350;55.922;2023-07-13T05:54:59;4.40;;;1.30;;
60068;SDS011;45945;53.350;55.922;2023-07-13T05:55:59;4.03;;;1.33;;
60068;SDS011;45945;53.350;55.922;2023-07-13T05:57:00;4.40;;;1.10;;
60068;SDS011;45945;53.350;55.922;2023-07-13T05:58:01;4.65;;;1.10;;
60068;SDS011;45945;53.350;55.922;2023-07-13T05:59:02;3.30;;;1.10;;
60068;SDS011;45945;53.350;55.922;2023-07-13T06:00:03;4.00;;;1.30;;
60068;SDS011;45945;53.350;55.922;2023-07-13T06:01:15;7.68;;;1.40;;
60068;SDS011;45945;53.350;55.922;2023-07-13T06:02:17;7.28;;;1.58;;
60068;SDS011;45945;53.350;55.922;2023-07-13T06:03:18;5.05;;;1.40;;
60068;SDS011;45945;53.350;55.922;2023-07-13T06:04:21;4.60;;;1.60;;
60068;SDS011;45945;53.350;55.922;2023-07-13T06:05:22;6.70;;;1.50;;
60068;SDS011;45945;53.350;55.922;2023-07-13T06:06:23;6.68;;;1.63;;
60068;SDS011;45945;53.350;55.922;2023-07-13T06:07:24;5.50;;;1.60;;